Time;durP1;ratioP1;P1;durP2;ratioP2;P2;SDS_P1;SDS_P2;PMS_P1;PMS_P2;Temp;Humidity;BMP_temperature;BMP_pressure;BME280_temperature;BME280_humidity;BME280_pressure;Samples;Min_cycle;Max_cycle;Signal;HPM_P1;HPM_P2
2021/09/23 00:02:23;;;;;;;1.77;1.70;;;;;;;;;;5031229;28;20037;-55
2021/09/23 00:04:56;;;;;;;2.58;2.47;;;;;;;;;;5030695;28;20469;-55
2021/09/23 00:07:23;;;;;;;2.35;1.73;;;;;;;;;;5028932;28;20068;-55
2021/09/23 00:09:50;;;;;;;2.20;2.20;;;;;;;;;;5032967;28;20049;-52
2021/09/23 00:12:16;;;;;;;2.08;1.98;;;;;;;;;;5030584;28;20120;-55
2021/09/23 00:14:44;;;;;;;2.35;1.92;;;;;;;;;;5031235;28;20658;-55
2021/09/23 00:17:10;;;;;;;2.40;2.25;;;;;;;;;;5030478;28;20095;-52
2021/09/23 00:19:37;;;;;;;1.83;1.83;;;;;;;;;;5027313;28;20056;-55
2021/09/23 00:22:04;;;;;;;2.42;2.33;;;;;;;;;;5029470;28;20095;-51
2021/09/23 00:24:31;;;;;;;2.25;2.15;;;;;;;;;;5029429;28;20033;-55
2021/09/23 00:26:57;;;;;;;2.80;2.15;;;;;;;;;;5028760;28;20050;-47
2021/09/23 00:29:24;;;;;;;2.25;2.15;;;;;;;;;;5030535;28;20485;-52
2021/09/23 00:31:51;;;;;;;2.20;1.95;;;;;;;;;;5029027;28;20057;-55
2021/09/23 00:34:18;;;;;;;1.73;1.63;;;;;;;;;;5028039;28;20433;-56
2021/09/23 00:36:44;;;;;;;2.58;2.38;;;;;;;;;;5021402;28;20053;-52
2021/09/23 00:39:11;;;;;;;1.90;1.90;;;;;;;;;;5023167;28;20053;-56
2021/09/23 00:41:39;;;;;;;1.63;1.63;;;;;;;;;;5029501;28;20432;-55
2021/09/23 00:44:15;;;;;;;2.45;2.22;;;;;;;;;;5030656;28;20160;-51
2021/09/23 00:46:43;;;;;;;3.13;2.10;;;;;;;;;;5028640;28;20540;-55
2021/09/23 00:49:09;;;;;;;1.60;1.50;;;;;;;;;;5029933;28;20128;-55
2021/09/23 00:51:37;;;;;;;1.77;1.73;;;;;;;;;;5026703;28;20092;-54
2021/09/23 00:54:04;;;;;;;1.92;1.73;;;;;;;;;;5027743;28;20033;-54
2021/09/23 00:56:30;;;;;;;1.88;1.88;;;;;;;;;;5029668;28;20048;-55
2021/09/23 00:58:57;;;;;;;2.20;2.05;;;;;;;;;;5027849;28;20132;-55
2021/09/23 01:01:24;;;;;;;1.77;1.77;;;;;;;;;;5028016;28;20087;-55
2021/09/23 01:03:52;;;;;;;2.38;2.05;;;;;;;;;;5028238;28;20049;-54
2021/09/23 01:06:19;;;;;;;1.50;1.45;;;;;;;;;;5028294;28;20037;-55
2021/09/23 01:08:53;;;;;;;2.33;2.33;;;;;;;;;;5029075;28;20033;-56
2021/09/23 01:11:20;;;;;;;1.55;1.55;;;;;;;;;;5027807;28;20033;-55
2021/09/23 01:13:47;;;;;;;1.77;1.67;;;;;;;;;;5030688;28;20073;-55
2021/09/23 01:16:14;;;;;;;1.98;1.88;;;;;;;;;;5028539;28;20064;-54
2021/09/23 01:18:41;;;;;;;1.83;1.83;;;;;;;;;;5022360;28;20493;-56
2021/09/23 01:21:07;;;;;;;2.05;2.00;;;;;;;;;;5029349;28;20120;-56
2021/09/23 01:23:38;;;;;;;2.25;2.08;;;;;;;;;;5028653;28;20437;-55
2021/09/23 01:26:30;;;;;;;1.70;1.48;;;;;;;;;;5023547;28;20096;-51
2021/09/23 01:28:57;;;;;;;1.58;1.58;;;;;;;;;;5029876;28;20053;-55
2021/09/23 01:31:24;;;;;;;1.70;1.70;;;;;;;;;;5027560;28;20042;-56
2021/09/23 01:33:51;;;;;;;1.50;1.50;;;;;;;;;;5030891;28;20041;-56
2021/09/23 01:36:18;;;;;;;1.60;1.60;;;;;;;;;;5026386;28;20049;-47
2021/09/23 01:38:44;;;;;;;2.70;1.58;;;;;;;;;;5027690;28;20505;-53
2021/09/23 01:41:11;;;;;;;1.80;1.70;;;;;;;;;;5029077;28;20042;-54
2021/09/23 01:43:38;;;;;;;1.95;1.90;;;;;;;;;;5027753;28;20092;-55
2021/09/23 01:46:04;;;;;;;1.52;1.52;;;;;;;;;;5028212;28;20423;-55
2021/09/23 01:48:31;;;;;;;1.52;1.52;;;;;;;;;;5028199;28;20125;-54
2021/09/23 01:50:58;;;;;;;1.92;1.63;;;;;;;;;;5027713;28;20034;-55
2021/09/23 01:53:25;;;;;;;1.77;1.52;;;;;;;;;;5029159;28;20046;-53
2021/09/23 01:55:52;;;;;;;1.45;1.30;;;;;;;;;;5028650;28;20076;-52
2021/09/23 01:58:19;;;;;;;1.73;1.63;;;;;;;;;;5010033;28;20054;-55
2021/09/23 02:00:45;;;;;;;1.70;1.30;;;;;;;;;;5027234;28;20398;-55
2021/09/23 02:03:12;;;;;;;2.25;1.52;;;;;;;;;;5026679;28;20032;-55
2021/09/23 02:05:40;;;;;;;2.08;1.98;;;;;;;;;;5028995;28;20591;-55
2021/09/23 02:08:06;;;;;;;1.52;1.52;;;;;;;;;;5029741;28;20680;-56
2021/09/23 02:10:33;;;;;;;3.30;1.45;;;;;;;;;;5028085;28;20087;-56
2021/09/23 02:13:00;;;;;;;1.65;1.65;;;;;;;;;;5029844;28;20069;-51
2021/09/23 02:15:26;;;;;;;1.50;1.50;;;;;;;;;;5029388;28;20061;-55
2021/09/23 02:17:53;;;;;;;1.67;1.30;;;;;;;;;;5027241;28;20053;-55
2021/09/23 02:20:20;;;;;;;1.40;1.30;;;;;;;;;;5024974;28;20045;-51
2021/09/23 02:22:47;;;;;;;1.90;1.90;;;;;;;;;;5031959;28;20113;-56
2021/09/23 02:25:13;;;;;;;1.95;1.35;;;;;;;;;;5031525;28;20037;-53
2021/09/23 02:27:40;;;;;;;4.35;1.65;;;;;;;;;;5031197;28;20080;-55
2021/09/23 02:30:07;;;;;;;4.00;1.67;;;;;;;;;;5033116;28;20042;-55
2021/09/23 02:32:34;;;;;;;2.15;1.77;;;;;;;;;;5030306;28;20071;-54
2021/09/23 02:35:01;;;;;;;1.40;1.40;;;;;;;;;;5031649;28;20045;-55
2021/09/23 02:37:28;;;;;;;1.50;1.40;;;;;;;;;;5030649;28;20042;-55
2021/09/23 02:39:57;;;;;;;2.15;1.35;;;;;;;;;;5031873;28;20103;-49
2021/09/23 02:42:24;;;;;;;1.52;1.45;;;;;;;;;;5032757;28;20048;-53
2021/09/23 02:44:51;;;;;;;1.70;1.70;;;;;;;;;;5032648;28;20100;-55
2021/09/23 02:47:18;;;;;;;2.78;2.00;;;;;;;;;;5031450;28;20029;-55
2021/09/23 02:49:45;;;;;;;1.80;1.80;;;;;;;;;;5032920;28;20521;-53
2021/09/23 02:52:12;;;;;;;1.92;1.83;;;;;;;;;;5031934;28;20065;-55
2021/09/23 02:54:38;;;;;;;2.38;2.28;;;;;;;;;;5032438;28;20041;-54
2021/09/23 02:57:05;;;;;;;1.85;1.85;;;;;;;;;;5030269;28;20123;-55
2021/09/23 02:59:32;;;;;;;2.60;1.90;;;;;;;;;;5031429;28;20431;-55
2021/09/23 03:01:59;;;;;;;2.88;2.03;;;;;;;;;;5032334;28;20041;-56
2021/09/23 03:04:26;;;;;;;2.00;2.00;;;;;;;;;;5028481;28;20125;-54
2021/09/23 03:06:52;;;;;;;2.17;1.88;;;;;;;;;;5031235;28;20099;-55
2021/09/23 03:09:19;;;;;;;2.35;1.80;;;;;;;;;;5031590;28;20064;-55
2021/09/23 03:11:46;;;;;;;2.22;2.03;;;;;;;;;;5029689;28;20104;-53
2021/09/23 03:14:13;;;;;;;1.77;1.55;;;;;;;;;;5031712;28;20053;-55
2021/09/23 03:16:39;;;;;;;1.38;1.20;;;;;;;;;;5032257;28;20099;-56
2021/09/23 03:19:06;;;;;;;1.85;1.77;;;;;;;;;;5028821;28;20041;-50
2021/09/23 03:21:33;;;;;;;1.70;1.63;;;;;;;;;;5029761;28;20049;-55
2021/09/23 03:24:00;;;;;;;2.15;1.80;;;;;;;;;;5029318;28;20105;-56
2021/09/23 03:26:27;;;;;;;3.60;1.90;;;;;;;;;;5031615;28;20119;-55
2021/09/23 03:28:53;;;;;;;1.35;1.20;;;;;;;;;;5029056;28;20496;-53
2021/09/23 03:31:20;;;;;;;1.60;1.60;;;;;;;;;;5030679;28;20393;-56
2021/09/23 03:33:47;;;;;;;1.52;1.45;;;;;;;;;;5030727;28;20120;-53
2021/09/23 03:36:14;;;;;;;1.50;1.40;;;;;;;;;;5031199;28;20551;-56
2021/09/23 03:38:41;;;;;;;1.30;1.20;;;;;;;;;;5020355;28;20125;-55
2021/09/23 03:41:08;;;;;;;1.45;1.40;;;;;;;;;;5029380;28;20216;-53
2021/09/23 03:43:35;;;;;;;1.80;1.40;;;;;;;;;;5030253;28;20041;-53
2021/09/23 03:46:05;;;;;;;1.70;1.48;;;;;;;;;;5030392;28;20337;-55
2021/09/23 03:48:32;;;;;;;1.40;1.40;;;;;;;;;;5030654;28;20619;-53
2021/09/23 03:50:59;;;;;;;1.58;1.42;;;;;;;;;;5031271;28;20581;-55
2021/09/23 03:53:26;;;;;;;1.30;1.30;;;;;;;;;;5030443;28;20049;-55
2021/09/23 03:55:52;;;;;;;2.25;1.27;;;;;;;;;;5018459;28;20091;-54
2021/09/23 03:58:19;;;;;;;2.58;1.27;;;;;;;;;;5030957;28;20474;-54
2021/09/23 04:00:46;;;;;;;1.40;1.40;;;;;;;;;;5028935;28;20137;-55
2021/09/23 04:03:13;;;;;;;1.40;1.40;;;;;;;;;;5030430;28;20107;-53
2021/09/23 04:05:40;;;;;;;5.45;1.77;;;;;;;;;;5031002;28;20029;-55
2021/09/23 04:08:07;;;;;;;1.48;1.48;;;;;;;;;;5030852;28;20057;-53
2021/09/23 04:10:33;;;;;;;2.25;1.98;;;;;;;;;;5030310;28;20501;-56
2021/09/23 04:13:00;;;;;;;3.15;2.63;;;;;;;;;;5031558;28;20120;-56
2021/09/23 04:15:27;;;;;;;2.28;2.17;;;;;;;;;;5019559;28;20490;-52
2021/09/23 04:17:53;;;;;;;2.05;1.85;;;;;;;;;;5028063;28;20060;-53
2021/09/23 04:20:20;;;;;;;2.10;2.10;;;;;;;;;;5028916;28;20415;-55
2021/09/23 04:22:48;;;;;;;2.00;2.00;;;;;;;;;;5028928;28;20436;-51
2021/09/23 04:25:15;;;;;;;2.08;2.08;;;;;;;;;;5028002;28;20025;-55
2021/09/23 04:27:42;;;;;;;2.13;2.03;;;;;;;;;;5019417;28;20037;-51
2021/09/23 04:30:09;;;;;;;2.72;2.60;;;;;;;;;;5031329;28;20049;-55
2021/09/23 04:32:35;;;;;;;2.30;2.30;;;;;;;;;;5026413;28;20112;-55
2021/09/23 04:35:02;;;;;;;2.30;2.20;;;;;;;;;;5030509;28;20041;-55
2021/09/23 04:37:29;;;;;;;2.40;2.20;;;;;;;;;;5028723;28;20041;-55
2021/09/23 04:39:56;;;;;;;2.63;2.55;;;;;;;;;;5028687;28;20050;-54
2021/09/23 04:42:23;;;;;;;2.20;2.10;;;;;;;;;;5030326;28;20038;-55
2021/09/23 04:44:50;;;;;;;2.83;2.63;;;;;;;;;;5028864;28;20044;-55
2021/09/23 04:47:17;;;;;;;3.05;2.90;;;;;;;;;;5030856;28;20216;-54
2021/09/23 04:49:44;;;;;;;4.80;2.60;;;;;;;;;;5026764;28;20461;-56
2021/09/23 04:52:11;;;;;;;3.67;2.63;;;;;;;;;;5027572;28;20034;-55
2021/09/23 04:54:37;;;;;;;2.97;1.88;;;;;;;;;;5029818;28;20050;-55
2021/09/23 04:57:04;;;;;;;2.75;2.70;;;;;;;;;;5030143;28;20083;-54
2021/09/23 04:59:35;;;;;;;2.90;2.80;;;;;;;;;;5030356;28;20053;-55
2021/09/23 05:02:02;;;;;;;3.35;3.05;;;;;;;;;;5029314;28;20568;-55
2021/09/23 05:04:29;;;;;;;2.78;2.58;;;;;;;;;;5027425;28;20091;-56
2021/09/23 05:06:56;;;;;;;2.63;2.42;;;;;;;;;;5029350;28;20891;-55
2021/09/23 05:09:22;;;;;;;1.80;1.80;;;;;;;;;;5027816;28;20037;-55
2021/09/23 05:11:50;;;;;;;2.67;2.53;;;;;;;;;;5030901;28;20378;-55
2021/09/23 05:14:17;;;;;;;3.47;2.10;;;;;;;;;;5029900;28;20046;-55
2021/09/23 05:16:44;;;;;;;2.50;2.40;;;;;;;;;;5027917;28;20061;-55
2021/09/23 05:19:11;;;;;;;2.67;2.42;;;;;;;;;;5028662;28;20498;-58
2021/09/23 05:21:38;;;;;;;8.20;3.47;;;;;;;;;;5027453;28;20072;-55
2021/09/23 05:24:05;;;;;;;2.28;2.17;;;;;;;;;;5018057;28;20040;-55
2021/09/23 05:26:31;;;;;;;3.15;2.25;;;;;;;;;;5022123;28;20061;-54
2021/09/23 05:29:01;;;;;;;3.22;3.05;;;;;;;;;;5018940;28;20474;-56
2021/09/23 05:31:27;;;;;;;3.20;3.00;;;;;;;;;;5027444;28;20160;-53
2021/09/23 05:33:56;;;;;;;4.35;3.17;;;;;;;;;;5027249;28;20125;-56
2021/09/23 05:36:23;;;;;;;3.05;3.05;;;;;;;;;;5030812;28;20034;-56
2021/09/23 05:38:49;;;;;;;2.47;2.38;;;;;;;;;;5027195;28;20053;-56
2021/09/23 05:41:16;;;;;;;2.50;2.40;;;;;;;;;;5021757;28;20064;-55
2021/09/23 05:43:42;;;;;;;2.00;2.00;;;;;;;;;;5029726;28;20038;-56
2021/09/23 05:46:09;;;;;;;2.00;2.00;;;;;;;;;;5029609;28;20351;-55
2021/09/23 05:48:36;;;;;;;1.80;1.52;;;;;;;;;;5027929;28;20056;-56
2021/09/23 05:51:03;;;;;;;2.25;1.98;;;;;;;;;;5029239;28;20049;-56
2021/09/23 05:53:29;;;;;;;2.35;2.03;;;;;;;;;;5029093;28;20053;-56
2021/09/23 05:55:56;;;;;;;4.45;1.60;;;;;;;;;;5019476;28;20111;-56
2021/09/23 05:58:23;;;;;;;2.80;1.50;;;;;;;;;;5031101;28;20091;-56
2021/09/23 06:00:50;;;;;;;1.58;1.58;;;;;;;;;;5032130;28;20049;-55
2021/09/23 06:03:17;;;;;;;3.25;2.10;;;;;;;;;;5033236;28;20045;-56
2021/09/23 06:05:44;;;;;;;1.50;1.50;;;;;;;;;;5031489;28;20112;-56
2021/09/23 06:08:11;;;;;;;1.80;1.70;;;;;;;;;;5033155;28;20038;-55
2021/09/23 06:10:38;;;;;;;5.65;2.65;;;;;;;;;;5032352;28;20095;-55
2021/09/23 06:13:05;;;;;;;1.92;1.83;;;;;;;;;;5033578;28;20069;-56
2021/09/23 06:15:33;;;;;;;2.03;1.90;;;;;;;;;;5030982;28;20068;-54
2021/09/23 06:17:59;;;;;;;1.73;1.73;;;;;;;;;;5032291;28;20037;-56
2021/09/23 06:20:26;;;;;;;3.00;2.70;;;;;;;;;;5031376;28;20034;-57
2021/09/23 06:22:55;;;;;;;4.63;1.85;;;;;;;;;;5032346;28;20037;-56
2021/09/23 06:25:22;;;;;;;1.90;1.40;;;;;;;;;;5030193;28;20026;-57
2021/09/23 06:27:48;;;;;;;3.13;2.00;;;;;;;;;;5020780;28;20145;-56
2021/09/23 06:30:17;;;;;;;3.55;1.17;;;;;;;;;;5027758;28;20354;-55
2021/09/23 06:32:44;;;;;;;3.72;1.90;;;;;;;;;;5031064;28;20033;-53
2021/09/23 06:35:11;;;;;;;2.83;1.75;;;;;;;;;;5032513;28;20045;-55
2021/09/23 06:37:45;;;;;;;2.58;2.38;;;;;;;;;;5027217;28;20124;-56
2021/09/23 06:40:11;;;;;;;3.40;1.88;;;;;;;;;;5032717;28;20497;-54
2021/09/23 06:42:38;;;;;;;3.53;1.83;;;;;;;;;;5029420;28;20073;-56
2021/09/23 06:45:05;;;;;;;3.42;1.77;;;;;;;;;;5031353;28;20037;-56
2021/09/23 06:47:32;;;;;;;2.22;2.03;;;;;;;;;;5031054;28;20069;-55
2021/09/23 06:49:59;;;;;;;1.88;1.77;;;;;;;;;;5031775;28;20161;-55
2021/09/23 06:52:26;;;;;;;2.25;2.13;;;;;;;;;;5032631;28;20056;-55
2021/09/23 06:54:54;;;;;;;2.25;1.77;;;;;;;;;;5031688;28;20065;-57
2021/09/23 06:57:21;;;;;;;2.35;2.22;;;;;;;;;;5032153;28;20048;-56
2021/09/23 06:59:47;;;;;;;2.13;1.77;;;;;;;;;;5032212;28;20045;-56
2021/09/23 07:02:14;;;;;;;1.60;1.60;;;;;;;;;;5029404;28;20800;-55
2021/09/23 07:04:41;;;;;;;1.80;1.80;;;;;;;;;;5031890;28;20071;-55
2021/09/23 07:07:08;;;;;;;1.10;1.10;;;;;;;;;;5028783;28;20042;-56
2021/09/23 07:09:34;;;;;;;1.95;1.10;;;;;;;;;;5030781;28;20041;-55
2021/09/23 07:12:01;;;;;;;3.67;1.05;;;;;;;;;;5031300;28;20037;-56
2021/09/23 07:14:28;;;;;;;2.63;1.00;;;;;;;;;;5032798;28;20049;-55
2021/09/23 07:16:55;;;;;;;4.53;0.95;;;;;;;;;;5032615;28;20077;-56
2021/09/23 07:19:22;;;;;;;3.55;1.10;;;;;;;;;;5030435;28;20470;-54
2021/09/23 07:21:53;;;;;;;2.25;1.38;;;;;;;;;;5030471;28;20440;-55
2021/09/23 07:24:20;;;;;;;0.90;0.90;;;;;;;;;;5031965;28;20121;-55
2021/09/23 07:26:47;;;;;;;1.40;1.40;;;;;;;;;;5030344;28;20151;-56
2021/09/23 07:29:15;;;;;;;0.90;0.90;;;;;;;;;;5014750;28;20029;-56
2021/09/23 07:31:44;;;;;;;1.08;0.90;;;;;;;;;;5031760;28;20025;-56
2021/09/23 07:34:12;;;;;;;1.00;1.00;;;;;;;;;;5028946;28;20037;-56
2021/09/23 07:36:39;;;;;;;1.00;1.00;;;;;;;;;;5031848;28;20042;-54
2021/09/23 07:39:08;;;;;;;2.33;1.20;;;;;;;;;;5028416;28;20096;-55
2021/09/23 07:41:37;;;;;;;1.40;1.20;;;;;;;;;;5021335;28;20045;-55
2021/09/23 07:44:04;;;;;;;2.50;1.00;;;;;;;;;;5031352;28;20096;-56
2021/09/23 07:46:31;;;;;;;0.90;0.90;;;;;;;;;;5030606;28;20041;-55
2021/09/23 07:48:58;;;;;;;2.97;1.02;;;;;;;;;;5030724;28;20041;-56
2021/09/23 07:51:25;;;;;;;1.30;1.20;;;;;;;;;;5031027;28;20111;-55
2021/09/23 07:53:52;;;;;;;2.33;1.10;;;;;;;;;;5031010;28;20115;-53
2021/09/23 07:56:19;;;;;;;1.45;0.95;;;;;;;;;;5031173;28;20046;-56
2021/09/23 07:58:46;;;;;;;1.50;1.20;;;;;;;;;;5030630;28;20046;-55
2021/09/23 08:01:12;;;;;;;1.60;1.10;;;;;;;;;;5030418;28;20076;-54
2021/09/23 08:03:39;;;;;;;2.47;0.98;;;;;;;;;;5029263;28;20194;-55
2021/09/23 08:06:07;;;;;;;2.65;1.13;;;;;;;;;;5028620;28;20041;-56
2021/09/23 08:08:34;;;;;;;1.02;0.90;;;;;;;;;;5029040;28;20029;-56
2021/09/23 08:11:01;;;;;;;2.75;1.10;;;;;;;;;;5024267;28;20025;-55
2021/09/23 08:13:28;;;;;;;1.00;0.90;;;;;;;;;;5030016;28;20076;-54
2021/09/23 08:15:54;;;;;;;1.00;0.98;;;;;;;;;;5030338;28;20046;-56
2021/09/23 08:18:22;;;;;;;1.00;1.00;;;;;;;;;;5027499;28;20042;-56
2021/09/23 08:20:49;;;;;;;1.38;0.85;;;;;;;;;;5030808;28;20045;-56
2021/09/23 08:23:18;;;;;;;0.90;0.90;;;;;;;;;;5027264;28;20046;-52
2021/09/23 08:25:45;;;;;;;2.10;1.40;;;;;;;;;;5029202;28;20764;-56
2021/09/23 08:28:12;;;;;;;1.63;1.35;;;;;;;;;;5031261;28;20041;-55
2021/09/23 08:30:42;;;;;;;3.92;1.50;;;;;;;;;;5029380;28;20047;-56
2021/09/23 08:33:09;;;;;;;1.30;1.20;;;;;;;;;;5031074;28;20073;-55
2021/09/23 08:35:35;;;;;;;1.10;1.10;;;;;;;;;;5029246;28;20511;-55
2021/09/23 08:38:02;;;;;;;1.55;1.50;;;;;;;;;;5027923;28;20057;-54
2021/09/23 08:40:29;;;;;;;1.30;1.20;;;;;;;;;;5031160;28;20068;-55
2021/09/23 08:42:56;;;;;;;6.75;2.03;;;;;;;;;;5029203;28;20038;-55
2021/09/23 08:45:23;;;;;;;2.28;1.83;;;;;;;;;;5030259;28;20096;-55
2021/09/23 08:47:49;;;;;;;1.85;1.70;;;;;;;;;;5029695;28;20033;-56
2021/09/23 08:50:16;;;;;;;3.70;1.58;;;;;;;;;;5030003;28;20033;-55
2021/09/23 08:52:43;;;;;;;2.20;1.58;;;;;;;;;;5030159;28;20042;-56
2021/09/23 08:55:21;;;;;;;3.70;0.95;;;;;;;;;;5028103;28;20048;-54
2021/09/23 08:57:47;;;;;;;8.60;1.08;;;;;;;;;;5023358;28;20038;-55
2021/09/23 09:00:14;;;;;;;1.13;1.10;;;;;;;;;;5029834;28;20056;-55
2021/09/23 09:02:41;;;;;;;1.15;1.00;;;;;;;;;;5029844;28;20646;-56
2021/09/23 09:05:15;;;;;;;1.17;1.17;;;;;;;;;;5029835;28;20046;-55
2021/09/23 09:07:42;;;;;;;1.60;0.90;;;;;;;;;;5026612;28;20065;-55
2021/09/23 09:10:09;;;;;;;3.53;0.80;;;;;;;;;;5028588;28;20491;-56
2021/09/23 09:12:38;;;;;;;0.82;0.82;;;;;;;;;;5026303;28;20441;-55
2021/09/23 09:15:05;;;;;;;0.85;0.85;;;;;;;;;;5020333;28;20060;-54
2021/09/23 09:17:36;;;;;;;0.80;0.80;;;;;;;;;;5029988;28;20096;-56
2021/09/23 09:20:04;;;;;;;0.80;0.80;;;;;;;;;;5027334;28;20453;-55
2021/09/23 09:22:33;;;;;;;2.45;0.80;;;;;;;;;;5028500;28;20029;-56
2021/09/23 09:25:09;;;;;;;0.80;0.80;;;;;;;;;;5029240;28;20030;-54
2021/09/23 09:27:37;;;;;;;0.70;0.70;;;;;;;;;;5027204;28;20048;-53
2021/09/23 09:30:13;;;;;;;0.93;0.93;;;;;;;;;;5025390;28;20044;-56
2021/09/23 09:32:47;;;;;;;0.80;0.80;;;;;;;;;;5029754;28;20132;-55
2021/09/23 09:35:18;;;;;;;1.50;0.93;;;;;;;;;;5027744;28;20065;-56
2021/09/23 09:37:53;;;;;;;0.70;0.70;;;;;;;;;;5029353;28;20103;-55
2021/09/23 09:40:23;;;;;;;5.82;0.90;;;;;;;;;;5029896;28;20053;-55
2021/09/23 09:42:51;;;;;;;0.80;0.80;;;;;;;;;;5028306;28;20160;-56
2021/09/23 09:45:23;;;;;;;0.70;0.70;;;;;;;;;;5017397;28;20038;-56
2021/09/23 09:47:53;;;;;;;0.80;0.80;;;;;;;;;;5024676;28;20474;-55
2021/09/23 09:50:21;;;;;;;0.80;0.80;;;;;;;;;;5028362;28;20582;-56
2021/09/23 09:52:50;;;;;;;1.05;0.70;;;;;;;;;;5028810;28;20099;-56
2021/09/23 09:55:18;;;;;;;0.70;0.70;;;;;;;;;;5026118;28;20045;-55
2021/09/23 09:57:46;;;;;;;0.70;0.70;;;;;;;;;;5029597;28;20045;-56
2021/09/23 10:00:13;;;;;;;2.45;0.80;;;;;;;;;;5027217;28;20111;-55
2021/09/23 10:02:43;;;;;;;0.70;0.70;;;;;;;;;;5028577;28;20092;-56
2021/09/23 10:05:11;;;;;;;0.70;0.70;;;;;;;;;;5028734;28;20575;-54
2021/09/23 10:07:38;;;;;;;0.70;0.70;;;;;;;;;;5028627;28;20133;-57
2021/09/23 10:10:05;;;;;;;0.82;0.60;;;;;;;;;;5024212;28;20111;-56
2021/09/23 10:12:33;;;;;;;0.63;0.63;;;;;;;;;;5027595;28;20033;-55
2021/09/23 10:15:00;;;;;;;0.75;0.70;;;;;;;;;;5015735;28;20049;-55
2021/09/23 10:17:30;;;;;;;0.60;0.60;;;;;;;;;;5028995;28;20533;-56
2021/09/23 10:19:58;;;;;;;0.90;0.70;;;;;;;;;;5026114;28;20474;-56
2021/09/23 10:22:25;;;;;;;0.70;0.70;;;;;;;;;;5028082;28;20042;-56
2021/09/23 10:24:53;;;;;;;1.25;0.60;;;;;;;;;;5027176;28;20048;-55
2021/09/23 10:30:06;;;;;;;0.70;0.70;;;;;;;;;;5028806;28;20509;-56
2021/09/23 10:32:33;;;;;;;0.65;0.65;;;;;;;;;;5028150;28;20044;-56
2021/09/23 10:35:00;;;;;;;0.70;0.70;;;;;;;;;;5028191;28;20038;-55
2021/09/23 10:37:27;;;;;;;0.60;0.60;;;;;;;;;;5027932;28;20076;-56
2021/09/23 10:39:54;;;;;;;0.60;0.60;;;;;;;;;;5026112;28;20057;-55
2021/09/23 10:42:21;;;;;;;0.70;0.70;;;;;;;;;;5024660;28;20049;-56
2021/09/23 10:44:51;;;;;;;2.40;0.60;;;;;;;;;;5025714;28;20037;-56
2021/09/23 10:47:28;;;;;;;0.60;0.60;;;;;;;;;;5028802;28;20036;-55
2021/09/23 10:49:56;;;;;;;0.60;0.60;;;;;;;;;;5032291;28;20065;-56
2021/09/23 10:52:25;;;;;;;0.95;0.60;;;;;;;;;;5029997;28;20595;-55
2021/09/23 10:54:52;;;;;;;0.68;0.68;;;;;;;;;;5023080;28;20121;-55
2021/09/23 10:57:20;;;;;;;1.10;0.70;;;;;;;;;;5029304;28;20046;-56
2021/09/23 10:59:50;;;;;;;0.60;0.60;;;;;;;;;;5032025;28;20080;-56
2021/09/23 11:02:26;;;;;;;3.13;0.60;;;;;;;;;;5032315;28;20111;-56
2021/09/23 11:04:57;;;;;;;1.88;0.60;;;;;;;;;;5029121;28;20437;-56
2021/09/23 11:07:24;;;;;;;2.17;0.60;;;;;;;;;;5022278;28;20039;-56
2021/09/23 11:10:09;;;;;;;0.63;0.60;;;;;;;;;;5033042;28;20046;-56
2021/09/23 11:12:37;;;;;;;0.60;0.60;;;;;;;;;;5025815;28;20119;-56
2021/09/23 11:15:05;;;;;;;0.60;0.60;;;;;;;;;;5031369;28;20558;-56
2021/09/23 11:17:32;;;;;;;0.50;0.50;;;;;;;;;;5031254;28;20038;-56
2021/09/23 11:20:06;;;;;;;0.60;0.60;;;;;;;;;;5028066;28;20092;-55
2021/09/23 11:22:34;;;;;;;1.00;0.60;;;;;;;;;;5032594;28;20470;-54
2021/09/23 11:25:03;;;;;;;1.35;0.50;;;;;;;;;;5030402;28;20048;-55
2021/09/23 11:27:30;;;;;;;0.50;0.50;;;;;;;;;;5022352;28;20140;-56
2021/09/23 11:29:56;;;;;;;0.50;0.50;;;;;;;;;;5032438;28;20053;-56
2021/09/23 11:32:23;;;;;;;0.57;0.50;;;;;;;;;;5029344;28;20064;-56
2021/09/23 11:35:01;;;;;;;0.50;0.50;;;;;;;;;;5030462;28;20135;-55
2021/09/23 11:37:32;;;;;;;0.95;0.95;;;;;;;;;;5030787;28;20041;-53
2021/09/23 11:40:01;;;;;;;1.38;0.50;;;;;;;;;;5027657;28;20525;-54
2021/09/23 11:42:32;;;;;;;0.50;0.50;;;;;;;;;;5025112;28;20056;-55
2021/09/23 11:45:07;;;;;;;0.43;0.43;;;;;;;;;;5029429;28;21690;-55
2021/09/23 11:47:54;;;;;;;0.47;0.47;;;;;;;;;;5029043;28;20036;-55
2021/09/23 11:50:27;;;;;;;0.50;0.50;;;;;;;;;;5030535;28;20049;-55
2021/09/23 11:52:56;;;;;;;1.45;0.40;;;;;;;;;;5031502;28;20037;-53
2021/09/23 11:55:23;;;;;;;0.50;0.50;;;;;;;;;;5031339;28;20430;-54
2021/09/23 11:57:58;;;;;;;0.50;0.50;;;;;;;;;;5029563;28;20474;-53
2021/09/23 12:00:52;;;;;;;0.50;0.50;;;;;;;;;;5030877;28;20076;-54
2021/09/23 12:03:19;;;;;;;0.50;0.50;;;;;;;;;;5029616;28;20662;-56
2021/09/23 12:05:48;;;;;;;1.52;0.50;;;;;;;;;;5028501;28;20069;-55
2021/09/23 12:08:16;;;;;;;0.40;0.40;;;;;;;;;;5031192;28;20042;-56
2021/09/23 12:10:48;;;;;;;0.50;0.50;;;;;;;;;;5030650;28;20069;-56
2021/09/23 12:13:22;;;;;;;3.20;0.50;;;;;;;;;;5030341;28;20034;-56
2021/09/23 12:15:53;;;;;;;0.40;0.40;;;;;;;;;;5028658;28;20485;-56
2021/09/23 12:18:24;;;;;;;0.50;0.50;;;;;;;;;;5030401;28;20041;-56
2021/09/23 12:20:52;;;;;;;0.50;0.50;;;;;;;;;;5030031;28;20080;-55
2021/09/23 12:23:19;;;;;;;0.40;0.40;;;;;;;;;;5031376;28;20049;-54
2021/09/23 12:26:01;;;;;;;1.83;0.40;;;;;;;;;;5027089;28;20100;-56
2021/09/23 12:28:29;;;;;;;0.43;0.43;;;;;;;;;;5029547;28;20064;-55
2021/09/23 12:31:07;;;;;;;0.40;0.40;;;;;;;;;;5031359;28;20045;-54
2021/09/23 12:33:34;;;;;;;1.85;0.40;;;;;;;;;;5027501;28;20034;-54
2021/09/23 12:36:14;;;;;;;0.50;0.50;;;;;;;;;;5012318;28;20046;-55
2021/09/23 12:38:40;;;;;;;0.40;0.40;;;;;;;;;;5028162;28;20516;-55
2021/09/23 12:41:21;;;;;;;0.40;0.40;;;;;;;;;;5025484;28;20041;-55
2021/09/23 12:44:01;;;;;;;0.40;0.40;;;;;;;;;;5029780;28;20037;-55
2021/09/23 12:46:29;;;;;;;0.50;0.50;;;;;;;;;;5028394;28;20658;-47
2021/09/23 12:49:19;;;;;;;0.50;0.50;;;;;;;;;;5029044;28;20042;-46
2021/09/23 12:51:48;;;;;;;1.95;0.60;;;;;;;;;;5029994;28;20251;-45
2021/09/23 12:54:24;;;;;;;0.43;0.43;;;;;;;;;;5026901;28;20048;-47
2021/09/23 12:57:04;;;;;;;0.50;0.50;;;;;;;;;;5028373;28;20037;-44
2021/09/23 12:59:32;;;;;;;0.40;0.40;;;;;;;;;;5029606;28;20060;-43
2021/09/23 13:02:08;;;;;;;0.40;0.40;;;;;;;;;;5028172;28;20046;-45
2021/09/23 13:04:36;;;;;;;0.40;0.40;;;;;;;;;;5030425;28;20042;-44
2021/09/23 13:07:21;;;;;;;0.70;0.45;;;;;;;;;;5029665;28;20750;-44
2021/09/23 13:10:05;;;;;;;0.40;0.40;;;;;;;;;;5028524;28;20042;-45
2021/09/23 13:12:41;;;;;;;0.40;0.40;;;;;;;;;;5020433;28;20132;-44
2021/09/23 13:15:19;;;;;;;0.40;0.40;;;;;;;;;;5028639;28;20041;-44
2021/09/23 13:18:00;;;;;;;0.40;0.40;;;;;;;;;;5028084;28;20046;-44
2021/09/23 13:20:28;;;;;;;0.40;0.40;;;;;;;;;;5027383;28;20044;-44
2021/09/23 13:22:56;;;;;;;0.40;0.40;;;;;;;;;;5029627;28;20116;-44
2021/09/23 13:25:23;;;;;;;0.40;0.40;;;;;;;;;;5028080;28;20034;-47
2021/09/23 13:27:50;;;;;;;0.30;0.30;;;;;;;;;;5029924;28;20367;-44
2021/09/23 13:30:16;;;;;;;0.40;0.40;;;;;;;;;;5027664;28;20041;-45
2021/09/23 13:32:45;;;;;;;0.80;0.40;;;;;;;;;;5030520;28;20042;-44
2021/09/23 13:35:12;;;;;;;0.32;0.32;;;;;;;;;;5028321;28;20609;-44
2021/09/23 13:37:39;;;;;;;0.57;0.40;;;;;;;;;;5028052;28;20045;-44
2021/09/23 13:40:07;;;;;;;0.60;0.40;;;;;;;;;;5029526;28;20433;-45
2021/09/23 13:42:34;;;;;;;0.30;0.30;;;;;;;;;;5027845;28;20128;-46
2021/09/23 13:45:02;;;;;;;0.35;0.35;;;;;;;;;;5017996;28;20058;-44
2021/09/23 13:47:29;;;;;;;0.30;0.30;;;;;;;;;;5029326;28;20065;-44
2021/09/23 13:49:55;;;;;;;0.40;0.40;;;;;;;;;;5028721;28;20029;-44
2021/09/23 13:52:22;;;;;;;0.30;0.30;;;;;;;;;;5028504;28;20437;-46
2021/09/23 13:54:49;;;;;;;0.30;0.30;;;;;;;;;;5028802;28;20037;-45
2021/09/23 13:57:16;;;;;;;0.70;0.38;;;;;;;;;;5023233;28;20056;-48
2021/09/23 13:59:43;;;;;;;0.30;0.30;;;;;;;;;;5030305;28;20069;-45
2021/09/23 14:02:10;;;;;;;0.30;0.30;;;;;;;;;;5027318;28;20048;-44
2021/09/23 14:04:37;;;;;;;0.32;0.32;;;;;;;;;;5028717;28;20677;-46
2021/09/23 14:07:04;;;;;;;1.38;0.30;;;;;;;;;;5027823;28;20580;-44
2021/09/23 14:09:33;;;;;;;0.30;0.30;;;;;;;;;;5027970;28;20750;-45
2021/09/23 14:12:00;;;;;;;0.30;0.30;;;;;;;;;;5025359;28;20034;-44
2021/09/23 14:14:27;;;;;;;1.05;0.30;;;;;;;;;;5023602;28;20038;-43
2021/09/23 14:16:54;;;;;;;0.60;0.30;;;;;;;;;;5031074;28;20053;-46
2021/09/23 14:19:20;;;;;;;0.30;0.30;;;;;;;;;;5032204;28;20068;-46
2021/09/23 14:21:47;;;;;;;1.10;0.30;;;;;;;;;;5032562;28;20473;-43
2021/09/23 14:24:15;;;;;;;0.40;0.40;;;;;;;;;;5032287;28;20041;-44
2021/09/23 14:26:46;;;;;;;0.35;0.35;;;;;;;;;;5031108;28;20029;-46
2021/09/23 14:29:13;;;;;;;0.90;0.30;;;;;;;;;;5032732;28;20550;-46
2021/09/23 14:31:40;;;;;;;0.30;0.30;;;;;;;;;;5032573;28;20108;-44
2021/09/23 14:34:07;;;;;;;0.30;0.30;;;;;;;;;;5029953;28;20033;-44
2021/09/23 14:36:34;;;;;;;0.30;0.30;;;;;;;;;;5033100;28;20037;-46
2021/09/23 14:39:01;;;;;;;0.30;0.30;;;;;;;;;;5029914;28;20056;-45
2021/09/23 14:41:28;;;;;;;0.30;0.30;;;;;;;;;;5030218;28;20041;-46
2021/09/23 14:43:55;;;;;;;0.30;0.30;;;;;;;;;;5030899;28;21924;-45
2021/09/23 14:46:21;;;;;;;0.30;0.30;;;;;;;;;;5023995;28;20072;-46
2021/09/23 14:48:48;;;;;;;0.35;0.35;;;;;;;;;;5032582;28;20130;-45
2021/09/23 14:51:15;;;;;;;0.30;0.30;;;;;;;;;;5031969;28;20064;-43
2021/09/23 14:53:42;;;;;;;0.30;0.30;;;;;;;;;;5031225;28;20038;-45